Share

Anselmo, NE

Broken Bow Municipal (KBBW) Elev 2546 ft | 41.44 °N, 99.64 °W | Change Station

Current weather conditions updated 54 minutes ago

Overcast
Overcast
68 °F
Feels Like 68 °F
N
7
Wind Variable Wind from SW
Sunrise 6:51 AM
Sunset 8:25 PM
Moon Waning Gibbous

Today is forecast to be nearly the same temperature as yesterday.

Pressure 29.94 in
Visibility 10.0 miles
Clouds Overcast 10000 ft
Dew Point 54 °F
Humidity 61%
Rainfall 0.02 in
Snow Depth Not available.
UV 3 out of 16
Pollen 9.90 out of 12
Air Quality Not available.
Flu Activity Sporadic
METAR KBBW 201953Z AUTO 22006KT 10SM OVC100 20/12 A2997 RMK AO2 RAB16E47 SLP138 P0002 T02000122 $

More Conditions Fewer Conditions

Pressure 29.94 in
Visibility 10.0 miles
Clouds Overcast 10000 ft
Dew Point 54 °F
Humidity 61%
Rainfall 0.02 in
Snow Depth Not available.
UV 3 out of 16
Pollen 9.90 out of 12
Air Quality Not available.
Flu Activity Sporadic
METAR KBBW 201953Z AUTO 22006KT 10SM OVC100 20/12 A2997 RMK AO2 RAB16E47 SLP138 P0002 T02000122 $

More Conditions Fewer Conditions

10-Day Weather Forecast

Almanac

Astronomy

Apr. 20, 2014 Rise Set
Actual Time 6:51 AM CDT 8:25 PM CDT
Civil Twilight 6:22 AM CDT 8:54 PM CDT
Nautical Twilight 5:46 AM CDT 9:29 PM CDT
Astronomical Twilight 5:09 AM CDT 10:07 PM CDT
Moon 1:08 AM CDT 11:12 AM CDT
Length of Visible Light 14h 32m
Length of Day
13h 33m
Tomorrow will be 2m 36s longer.
Waning Gibbous, 66% of the Moon is Illuminated
Today
Waning Gibbous
Apr 22
Last Quarter
Apr 29
New
May 6
First Quarter
May 14
Full

Today's Extremes

State Highs State Lows

Community

  • Morning Sun
    Morning Sun
  • after rain
    after rain
  • Columbine
    Columbine
  • Easter Sunrise
    Easter Sunrise
  • Easter Eve - The Promise - Lake Palestine, TX
    Easter Eve - The Promise - Lake Palestine, TX

WunderPhotos

Upload Photos

1,703,351 photos uploaded!

WunderBlogs® & News

Nearby

Snow Depth

Station Depth Elevation
No new snow has been reported.

Coastal Water Temperatures

Place Temperature
No Stations Reporting

Earthquake Activity

City Distance Mag. Time & Date
No recent earthquake activity has been reported nearby.
Minimum magnitude displayed is 2.5.

Nearby Weather Stations

Station Location Temp. Heat Index Dew Point Humidity Wind Precip. Elev Updated Type
South of Town, Broken Bow, NE 73.9 °F 77 °F 52 °F 46% SW  at  3.0 mph 0.00 in / hr 2523 ft 3:46 PM CDT Normal
Sargent, Sargent, NE 73.2 °F 77 °F 51 °F 46% SW  at  8.0 mph 0.00 in / hr 2314 ft 3:45 PM CDT Normal

Show More Stations Show Fewer Stations

What do you think?

We're not finished. Please let us know what you like, what you don't like, and what you are still missing.